createdAt,value
2023-04-07T00:00:27.098Z,70.44
2023-04-07T00:03:51.079Z,69.99
2023-04-07T00:06:56.393Z,70.24
2023-04-07T00:10:00.032Z,70.62
2023-04-07T00:13:04.150Z,70.18
2023-04-07T00:16:08.306Z,70.77
2023-04-07T00:19:12.198Z,70.59
2023-04-07T00:22:18.109Z,71.35
2023-04-07T00:25:21.894Z,70.68
2023-04-07T00:28:25.739Z,71.30
2023-04-07T00:31:29.536Z,71.40
2023-04-07T00:34:33.217Z,71.16
2023-04-07T00:37:38.496Z,70.87
2023-04-07T00:40:42.660Z,70.87
2023-04-07T00:43:46.582Z,70.88
2023-04-07T00:46:50.558Z,70.26
2023-04-07T00:49:54.312Z,70.48
2023-04-07T00:52:59.682Z,70.76
2023-04-07T00:56:03.331Z,70.30
2023-04-07T00:59:07.516Z,71.05
2023-04-07T01:02:19.476Z,70.45
2023-04-07T01:05:36.660Z,70.75
2023-04-07T01:08:58.744Z,70.68
2023-04-07T01:12:14.032Z,71.89
2023-04-07T01:15:23.917Z,71.84
2023-04-07T01:18:34.687Z,71.37
2023-04-07T01:21:44.173Z,71.38
2023-04-07T01:25:19.497Z,71.34
2023-04-07T01:29:01.858Z,71.61
2023-04-07T01:32:11.540Z,71.08
2023-04-07T01:35:17.851Z,71.14
2023-04-07T01:38:23.720Z,71.19
2023-04-07T01:41:28.987Z,70.92
2023-04-07T01:44:34.711Z,70.77
2023-04-07T01:47:41.284Z,71.28
2023-04-07T01:50:47.586Z,71.13
2023-04-07T01:53:51.716Z,71.80
2023-04-07T01:56:56.485Z,70.98
2023-04-07T02:00:00.684Z,71.73
2023-04-07T02:03:20.935Z,71.09
2023-04-07T02:06:34.256Z,71.43
2023-04-07T02:09:44.153Z,71.28
2023-04-07T02:12:49.544Z,71.37
2023-04-07T02:15:58.116Z,71.43
2023-04-07T02:19:04.935Z,72.02
2023-04-07T02:22:10.494Z,71.30
2023-04-07T02:25:26.603Z,72.21
2023-04-07T02:28:30.895Z,71.67
2023-04-07T02:31:34.680Z,71.75
2023-04-07T02:34:39.846Z,71.08
2023-04-07T02:37:44.291Z,71.60
2023-04-07T02:40:48.050Z,71.32
2023-04-07T02:43:51.968Z,71.29
2023-04-07T02:46:55.607Z,71.07
2023-04-07T02:50:02.023Z,70.76
2023-04-07T02:53:05.732Z,71.11
2023-04-07T02:56:09.498Z,71.62
2023-04-07T02:59:13.186Z,71.69
2023-04-07T03:02:20.141Z,71.81
2023-04-07T03:05:25.670Z,71.54
2023-04-07T03:08:29.257Z,71.53
2023-04-07T03:11:33.351Z,71.39
2023-04-07T03:14:37.699Z,71.27
2023-04-07T03:17:41.564Z,71.39
2023-04-07T03:20:49.076Z,71.63
2023-04-07T03:23:54.418Z,72.15
2023-04-07T03:26:58.374Z,73.22
2023-04-07T03:30:14.658Z,71.85
2023-04-07T03:33:20.444Z,72.14
2023-04-07T03:36:25.623Z,72.08
2023-04-07T03:39:30.039Z,71.94
2023-04-07T03:42:36.559Z,72.21
2023-04-07T03:45:44.388Z,72.47
2023-04-07T03:48:48.427Z,72.15
2023-04-07T03:51:53.851Z,72.41
2023-04-07T03:54:57.623Z,72.27
2023-04-07T03:58:07.374Z,72.28
2023-04-07T04:01:13.698Z,72.64
2023-04-07T04:04:19.885Z,72.68
2023-04-07T04:07:27.326Z,73.29
2023-04-07T04:10:35.550Z,72.28
2023-04-07T04:13:39.301Z,73.04
2023-04-07T04:16:44.494Z,72.34
2023-04-07T04:20:01.801Z,72.69
2023-04-07T04:23:19.583Z,73.42
2023-04-07T04:26:26.171Z,72.91
2023-04-07T04:29:33.717Z,72.87
2023-04-07T04:32:39.617Z,73.04
2023-04-07T04:35:46.457Z,72.93
2023-04-07T04:38:57.461Z,73.12
2023-04-07T04:42:01.448Z,72.82
2023-04-07T04:45:11.579Z,72.50
2023-04-07T04:48:18.794Z,72.54
2023-04-07T04:51:24.203Z,72.34
2023-04-07T04:54:34.525Z,73.29
2023-04-07T04:57:38.445Z,72.81
2023-04-07T05:00:46.427Z,73.86
2023-04-07T05:03:50.719Z,73.42
2023-04-07T05:06:59.654Z,73.03
2023-04-07T05:10:09.518Z,72.70
2023-04-07T05:13:16.995Z,72.94
2023-04-07T05:16:20.968Z,72.84
2023-04-07T05:19:25.023Z,72.35
2023-04-07T05:22:32.053Z,73.31
2023-04-07T05:25:37.925Z,72.79
2023-04-07T05:28:42.854Z,73.34
2023-04-07T05:31:53.236Z,73.29
2023-04-07T05:34:59.320Z,72.72
2023-04-07T05:38:08.369Z,72.35
2023-04-07T05:41:13.802Z,72.47
2023-04-07T05:44:17.704Z,72.47
2023-04-07T05:47:22.149Z,72.15
2023-04-07T05:50:28.302Z,72.63
2023-04-07T05:53:33.403Z,72.98
2023-04-07T05:56:38.622Z,72.80
2023-04-07T05:59:43.579Z,72.78
2023-04-07T06:02:48.547Z,72.01
2023-04-07T06:05:55.857Z,72.47
2023-04-07T06:08:59.717Z,72.15
2023-04-07T06:12:06.939Z,72.74
2023-04-07T06:15:11.559Z,72.27
2023-04-07T06:18:15.533Z,72.02
2023-04-07T06:21:18.902Z,71.94
2023-04-07T06:24:22.728Z,72.55
2023-04-07T06:27:27.720Z,72.18
2023-04-07T06:30:33.106Z,71.92
2023-04-07T06:33:36.864Z,72.08
2023-04-07T06:36:40.667Z,72.29
2023-04-07T06:39:45.479Z,72.11
2023-04-07T06:42:51.667Z,72.01
2023-04-07T06:46:04.169Z,72.73
2023-04-07T06:49:07.807Z,72.03
2023-04-07T06:52:11.293Z,72.68
2023-04-07T06:55:15.678Z,72.33
2023-04-07T06:58:20.642Z,72.39
2023-04-07T07:01:24.626Z,71.93
2023-04-07T07:04:28.635Z,72.72
2023-04-07T07:07:32.450Z,72.70
2023-04-07T07:10:36.110Z,72.69
2023-04-07T07:13:41.102Z,72.56
2023-04-07T07:16:44.958Z,72.68
2023-04-07T07:19:48.580Z,73.12
2023-04-07T07:22:52.522Z,72.60
2023-04-07T07:25:56.199Z,72.90
2023-04-07T07:29:01.479Z,72.41
2023-04-07T07:32:05.156Z,72.72
2023-04-07T07:35:09.714Z,72.45
2023-04-07T07:38:13.316Z,72.17
2023-04-07T07:41:17.065Z,72.60
2023-04-07T07:44:22.816Z,72.66
2023-04-07T07:47:26.917Z,72.21
2023-04-07T07:50:30.946Z,72.69
2023-04-07T07:53:34.539Z,72.21
2023-04-07T07:56:38.189Z,71.94
2023-04-07T07:59:43.536Z,72.80
2023-04-07T08:02:47.405Z,72.34
2023-04-07T08:05:51.676Z,72.23
2023-04-07T08:08:55.362Z,72.65
2023-04-07T08:11:58.848Z,72.31
2023-04-07T08:15:03.970Z,72.94
2023-04-07T08:18:07.714Z,72.46
2023-04-07T08:21:11.372Z,72.46
2023-04-07T08:24:15.862Z,72.49
2023-04-07T08:27:20.849Z,72.36
2023-04-07T08:30:26.045Z,72.49
2023-04-07T08:33:29.641Z,72.31
2023-04-07T08:36:33.362Z,72.35
2023-04-07T08:39:37.058Z,73.04
2023-04-07T08:42:44.044Z,72.62
2023-04-07T08:45:53.661Z,72.37
2023-04-07T08:48:58.778Z,72.41
2023-04-07T08:52:09.636Z,72.57
2023-04-07T08:55:14.709Z,72.36
2023-04-07T08:58:20.506Z,72.61
2023-04-07T09:01:27.802Z,72.65
2023-04-07T09:04:31.837Z,71.97
2023-04-07T09:07:40.260Z,72.71
2023-04-07T09:10:43.964Z,72.88
2023-04-07T09:13:47.685Z,72.94
2023-04-07T09:16:55.976Z,73.06
2023-04-07T09:20:01.397Z,72.60
2023-04-07T09:23:05.019Z,72.50
2023-04-07T09:26:24.507Z,72.81
2023-04-07T09:29:28.149Z,73.19
2023-04-07T09:32:39.377Z,72.75
2023-04-07T09:35:54.265Z,73.11
2023-04-07T09:39:08.928Z,72.71
2023-04-07T09:42:12.670Z,72.31
2023-04-07T09:45:34.659Z,73.27
2023-04-07T09:48:42.581Z,73.23
2023-04-07T09:51:56.595Z,73.29
2023-04-07T09:55:00.629Z,72.85
2023-04-07T09:58:06.532Z,73.10
2023-04-07T10:01:11.557Z,72.96
2023-04-07T10:04:17.754Z,73.92
2023-04-07T10:07:21.950Z,73.53
2023-04-07T10:10:28.719Z,74.08
2023-04-07T10:13:34.685Z,73.53
2023-04-07T10:16:40.120Z,73.40
2023-04-07T10:19:46.707Z,73.48
2023-04-07T10:22:54.042Z,72.93
2023-04-07T10:26:02.474Z,73.77
2023-04-07T10:29:13.239Z,73.31
2023-04-07T10:32:17.485Z,73.06
2023-04-07T10:35:23.384Z,72.95
2023-04-07T10:38:27.054Z,73.79
2023-04-07T10:41:36.455Z,73.21
2023-04-07T10:44:53.062Z,74.14
2023-04-07T10:48:13.695Z,73.31
2023-04-07T10:51:19.387Z,72.56
2023-04-07T10:54:29.045Z,72.98
2023-04-07T10:57:33.156Z,73.27
2023-04-07T11:00:39.355Z,72.75
2023-04-07T11:03:54.958Z,72.58
2023-04-07T11:07:00.120Z,73.09
2023-04-07T11:10:15.938Z,73.67
2023-04-07T11:13:19.476Z,73.36
2023-04-07T11:16:38.324Z,73.39
2023-04-07T11:19:52.991Z,73.73
2023-04-07T11:23:02.467Z,72.85
2023-04-07T11:26:06.592Z,72.71
2023-04-07T11:29:11.800Z,72.48
2023-04-07T11:32:16.865Z,72.90
2023-04-07T11:35:21.071Z,73.40
2023-04-07T11:38:28.500Z,73.37
2023-04-07T11:41:34.175Z,72.93
2023-04-07T11:44:46.853Z,73.23
2023-04-07T11:47:51.058Z,72.48
2023-04-07T11:50:54.815Z,72.98
2023-04-07T11:53:59.868Z,72.69
2023-04-07T11:57:03.656Z,73.19
2023-04-07T12:00:08.224Z,73.74
2023-04-07T12:03:15.032Z,73.34
2023-04-07T12:06:30.415Z,73.78
2023-04-07T12:09:37.760Z,72.98
2023-04-07T12:12:48.010Z,73.32
2023-04-07T12:15:52.240Z,73.10
2023-04-07T12:18:56.035Z,72.54
2023-04-07T12:21:59.778Z,72.77
2023-04-07T12:25:05.341Z,73.88
2023-04-07T12:28:09.001Z,73.52
2023-04-07T12:31:12.750Z,73.61
2023-04-07T12:34:16.514Z,73.74
2023-04-07T12:37:20.135Z,72.93
2023-04-07T12:40:25.291Z,73.57
2023-04-07T12:43:29.060Z,73.79
2023-04-07T12:46:32.655Z,73.86
2023-04-07T12:49:36.618Z,73.92
2023-04-07T12:52:40.230Z,73.97
2023-04-07T12:55:45.458Z,73.58
2023-04-07T12:58:49.055Z,73.38
2023-04-07T13:01:52.953Z,73.49
2023-04-07T13:04:57.464Z,73.98
2023-04-07T13:08:01.308Z,73.17
2023-04-07T13:11:06.949Z,73.32
2023-04-07T13:14:11.070Z,72.97
2023-04-07T13:17:14.657Z,72.78
2023-04-07T13:20:20.769Z,73.97
2023-04-07T13:23:26.346Z,73.76
2023-04-07T13:26:31.827Z,73.51
2023-04-07T13:29:35.369Z,73.44
2023-04-07T13:32:39.406Z,73.65
2023-04-07T13:35:43.034Z,73.34
2023-04-07T13:38:46.953Z,73.24
2023-04-07T13:41:51.741Z,73.92
2023-04-07T13:44:55.402Z,73.62
2023-04-07T13:47:58.801Z,73.55
2023-04-07T13:51:02.580Z,73.49
2023-04-07T13:54:05.996Z,73.30
2023-04-07T13:57:11.220Z,72.95
2023-04-07T14:00:16.362Z,73.18
2023-04-07T14:03:20.852Z,73.05
2023-04-07T14:06:24.328Z,73.25
2023-04-07T14:09:27.966Z,73.53
2023-04-07T14:12:32.740Z,73.37
2023-04-07T14:15:36.889Z,72.96
2023-04-07T14:18:40.405Z,73.82
2023-04-07T14:21:44.399Z,73.74
2023-04-07T14:24:47.920Z,73.36
2023-04-07T14:27:53.722Z,73.42
2023-04-07T14:30:57.244Z,73.74
2023-04-07T14:34:00.897Z,73.15
2023-04-07T14:37:04.307Z,73.00
2023-04-07T14:40:09.847Z,73.58
2023-04-07T14:43:14.615Z,72.80
2023-04-07T14:46:18.425Z,72.87
2023-04-07T14:49:21.831Z,73.11
2023-04-07T14:52:25.919Z,73.41
2023-04-07T14:55:31.460Z,72.75
2023-04-07T14:58:38.896Z,73.39
2023-04-07T15:01:42.746Z,73.51
2023-04-07T15:04:47.321Z,73.18
2023-04-07T15:07:52.539Z,73.53
2023-04-07T15:10:56.318Z,74.26
2023-04-07T15:14:01.464Z,74.04
2023-04-07T15:17:05.792Z,74.18
2023-04-07T15:20:10.658Z,73.86
2023-04-07T15:23:14.845Z,73.79
2023-04-07T15:26:18.549Z,74.46
2023-04-07T15:29:23.730Z,74.17
2023-04-07T15:32:27.453Z,73.84
2023-04-07T15:35:31.555Z,74.69
2023-04-07T15:38:35.559Z,74.25
2023-04-07T15:41:39.781Z,73.64
2023-04-07T15:44:44.658Z,74.44
2023-04-07T15:47:48.728Z,74.45
2023-04-07T15:50:52.488Z,74.64
2023-04-07T15:53:56.257Z,74.08
2023-04-07T15:56:59.850Z,74.43
2023-04-07T16:00:05.808Z,74.30
2023-04-07T16:03:10.084Z,73.79
2023-04-07T16:06:13.983Z,74.42
2023-04-07T16:09:17.735Z,74.86
2023-04-07T16:12:22.375Z,73.94
2023-04-07T16:18:36.624Z,75.16
2023-04-07T16:21:41.019Z,75.00
2023-04-07T16:24:44.763Z,74.93
2023-04-07T16:27:48.168Z,74.43
2023-04-07T16:30:53.392Z,74.29
2023-04-07T16:33:57.008Z,75.21
2023-04-07T16:37:00.965Z,75.32
2023-04-07T16:40:04.945Z,75.32
2023-04-07T16:43:09.087Z,75.20
2023-04-07T16:46:14.103Z,75.27
2023-04-07T16:49:18.022Z,74.63
2023-04-07T16:52:22.231Z,74.54
2023-04-07T16:55:26.043Z,75.25
2023-04-07T16:58:29.396Z,75.35
2023-04-07T17:01:34.625Z,75.11
2023-04-07T17:04:39.041Z,74.59
2023-04-07T17:07:42.910Z,75.03
2023-04-07T17:10:46.569Z,74.56
2023-04-07T17:13:56.403Z,74.93
2023-04-07T17:17:03.269Z,75.65
2023-04-07T17:20:08.887Z,75.04
2023-04-07T17:23:12.278Z,75.55
2023-04-07T17:26:16.827Z,75.18
2023-04-07T17:29:21.148Z,75.32
2023-04-07T17:32:26.350Z,75.33
2023-04-07T17:35:29.935Z,75.32
2023-04-07T17:38:33.894Z,75.45
2023-04-07T17:41:38.610Z,75.17
2023-04-07T17:44:42.477Z,75.95
2023-04-07T17:47:48.468Z,75.45
2023-04-07T17:50:52.491Z,75.39
2023-04-07T17:53:56.670Z,75.75
2023-04-07T17:57:01.009Z,75.59
2023-04-07T18:00:07.928Z,75.77
2023-04-07T18:03:19.521Z,76.27
2023-04-07T18:06:23.559Z,75.24
2023-04-07T18:09:27.679Z,75.82
2023-04-07T18:12:32.212Z,75.16
2023-04-07T18:15:36.309Z,75.23
2023-04-07T18:18:41.830Z,75.94
2023-04-07T18:21:45.992Z,75.16
2023-04-07T18:24:51.597Z,76.19
2023-04-07T18:27:55.713Z,75.30
2023-04-07T18:31:04.072Z,75.84
2023-04-07T18:34:09.611Z,76.03
2023-04-07T18:37:13.478Z,75.66
2023-04-07T18:40:17.831Z,75.23
2023-04-07T18:43:21.812Z,75.83
2023-04-07T18:46:26.236Z,76.10
2023-04-07T18:49:31.735Z,75.56
2023-04-07T18:52:36.235Z,75.65
2023-04-07T18:55:40.157Z,75.63
2023-04-07T18:58:45.972Z,75.80
2023-04-07T19:01:49.783Z,76.39
2023-04-07T19:04:56.007Z,75.84
2023-04-07T19:08:00.404Z,76.03
2023-04-07T19:11:05.741Z,75.85
2023-04-07T19:14:09.583Z,75.77
2023-04-07T19:17:13.351Z,75.74
2023-04-07T19:20:18.514Z,75.42
2023-04-07T19:23:22.944Z,75.93
2023-04-07T19:26:27.832Z,75.34
2023-04-07T19:29:32.085Z,75.92
2023-04-07T19:32:36.357Z,76.26
2023-04-07T19:35:41.958Z,76.31
2023-04-07T19:38:45.546Z,75.74
2023-04-07T19:41:49.322Z,75.67
2023-04-07T19:44:55.051Z,76.32
2023-04-07T19:48:00.288Z,75.95
2023-04-07T19:51:07.192Z,76.80
2023-04-07T19:54:12.105Z,75.47
2023-04-07T19:57:16.514Z,75.57
2023-04-07T20:00:20.673Z,76.28
2023-04-07T20:03:28.498Z,75.46
2023-04-07T20:06:36.510Z,76.06
2023-04-07T20:09:39.917Z,76.05
2023-04-07T20:12:43.796Z,76.30
2023-04-07T20:15:49.348Z,76.50
2023-04-07T20:18:53.190Z,76.32
2023-04-07T20:21:57.939Z,75.94
2023-04-07T20:25:04.813Z,76.79
2023-04-07T20:28:08.174Z,76.63
2023-04-07T20:31:11.954Z,76.76
2023-04-07T20:34:15.864Z,75.92
2023-04-07T20:37:21.769Z,76.47
2023-04-07T20:40:25.144Z,76.50
2023-04-07T20:43:29.115Z,76.63
2023-04-07T20:46:33.920Z,76.65
2023-04-07T20:49:39.573Z,76.91
2023-04-07T20:52:44.916Z,77.02
2023-04-07T20:55:48.628Z,76.38
2023-04-07T20:58:52.240Z,76.88
2023-04-07T21:01:56.557Z,76.36
2023-04-07T21:05:00.054Z,76.75
2023-04-07T21:08:05.574Z,76.96
2023-04-07T21:11:08.953Z,76.44
2023-04-07T21:14:12.678Z,76.27
2023-04-07T21:17:16.074Z,76.95
2023-04-07T21:20:20.059Z,76.96
2023-04-07T21:23:25.002Z,76.56
2023-04-07T21:26:28.785Z,76.39
2023-04-07T21:29:33.155Z,76.69
2023-04-07T21:32:36.871Z,76.46
2023-04-07T21:35:40.642Z,76.43
2023-04-07T21:38:45.952Z,76.45
2023-04-07T21:41:49.356Z,76.56
2023-04-07T21:44:53.073Z,76.56
2023-04-07T21:47:56.750Z,76.95
2023-04-07T21:51:01.134Z,76.80
2023-04-07T21:54:06.284Z,76.38
2023-04-07T21:57:10.062Z,76.85
2023-04-07T22:00:16.467Z,76.61
2023-04-07T22:03:22.193Z,76.96
2023-04-07T22:06:25.892Z,77.38
2023-04-07T22:09:31.092Z,76.40
2023-04-07T22:12:34.485Z,76.95
2023-04-07T22:15:38.115Z,76.57
2023-04-07T22:18:41.558Z,76.58
2023-04-07T22:21:45.391Z,76.34
2023-04-07T22:24:50.257Z,77.02
2023-04-07T22:27:54.281Z,76.64
2023-04-07T22:30:58.115Z,76.36
2023-04-07T22:34:01.989Z,76.59
2023-04-07T22:37:05.477Z,76.00
2023-04-07T22:40:11.957Z,76.50
2023-04-07T22:43:15.479Z,76.45
2023-04-07T22:46:19.213Z,75.89
2023-04-07T22:49:23.418Z,75.94
2023-04-07T22:52:27.079Z,76.47
2023-04-07T22:55:31.977Z,75.84
2023-04-07T22:58:35.651Z,76.19
2023-04-07T23:01:40.045Z,76.58
2023-04-07T23:04:43.763Z,75.90
2023-04-07T23:07:47.134Z,76.14
2023-04-07T23:10:52.402Z,75.90
2023-04-07T23:13:56.348Z,76.44
2023-04-07T23:17:01.124Z,76.62
2023-04-07T23:20:05.109Z,76.62
2023-04-07T23:23:08.870Z,76.38
2023-04-07T23:26:13.855Z,76.04
2023-04-07T23:29:17.730Z,76.17
2023-04-07T23:32:21.581Z,76.02
2023-04-07T23:35:25.477Z,76.38
2023-04-07T23:38:28.937Z,76.31
2023-04-07T23:41:34.034Z,76.47
2023-04-07T23:44:37.421Z,76.00
2023-04-07T23:47:41.217Z,76.38
2023-04-07T23:50:44.792Z,76.11
2023-04-07T23:53:48.488Z,76.14
2023-04-07T23:56:53.227Z,76.20
2023-04-07T23:59:57.171Z,76.21
